FAHS/HDS METAR and TAF weather

Enter ICAO airport designator
Station Type Date Time Source
FAHS METAR 2019/12/11 17:00 UTC NOAA

FAHS 111700Z AUTO 08006KT //// // ////// 24/21 Q1011


Station Type Date Time Source
FAHS Decoded METAR 2019/12/11 17:00 UTC NOAA

Hoedspruit, South Africa (FAHS) 24-22S 031-02E 500M
Dec 11, 2019 - 12:00 PM EST / 2019.12.11 1700 UTC
Wind: from the E (080 degrees) at 7 MPH (6 KT):0
Temperature: 75 F (24 C)
Dew Point: 69 F (21 C)
Relative Humidity: 83%
Pressure (altimeter): 29.85 in. Hg (1011 hPa)
ob: FAHS 111700Z AUTO 08006KT //// // ////// 24/21 Q1011
cycle: 17

Station Type Date Time Source
FAHS TAF 2017/05/23 04:01 UTC NOAA

TAF FAHS 230300Z 2304/2315 VRB02KT CAVOK TX29/2312ZTN12/2304Z

Example: see airport list